Time;durP1;ratioP1;P1;durP2;ratioP2;P2;SDS_P1;SDS_P2;PMS_P1;PMS_P2;Temp;Humidity;BMP_temperature;BMP_pressure;BME280_temperature;BME280_humidity;BME280_pressure;Samples;Min_cycle;Max_cycle;Signal;HPM_P1;HPM_P2
2021/04/08 00:01:13;;;;;;;1999.90;999.90;;;3.40;99.90;;;;;;4863368;29;20084;-94
2021/04/08 00:03:43;;;;;;;1999.90;999.90;;;3.40;99.90;;;;;;4863371;29;20069;-94
2021/04/08 00:06:17;;;;;;;1999.90;999.90;;;3.40;99.90;;;;;;4863589;29;20437;-95
2021/04/08 00:08:44;;;;;;;1999.90;999.90;;;3.40;99.90;;;;;;4863413;29;20412;-95
2021/04/08 00:11:12;;;;;;;1999.90;999.90;;;3.30;99.90;;;;;;4863915;29;20065;-94
2021/04/08 00:13:40;;;;;;;1999.90;999.90;;;3.30;99.90;;;;;;4862939;29;20049;-96
2021/04/08 00:16:11;;;;;;;1999.90;999.90;;;3.30;99.90;;;;;;4863677;29;20053;-94
2021/04/08 00:18:43;;;;;;;1999.90;999.90;;;3.30;99.90;;;;;;4863408;29;20458;-94
2021/04/08 00:21:11;;;;;;;1999.90;999.90;;;3.20;99.90;;;;;;4863343;29;20064;-95
2021/04/08 00:23:40;;;;;;;1999.90;999.90;;;3.20;99.90;;;;;;4863265;29;20073;-95
2021/04/08 00:26:09;;;;;;;1999.90;999.90;;;3.30;99.90;;;;;;4863538;29;20117;-94
2021/04/08 00:28:37;;;;;;;1999.90;999.90;;;3.30;99.90;;;;;;4863499;29;20049;-94
2021/04/08 00:31:04;;;;;;;1999.90;999.90;;;3.30;99.90;;;;;;4866953;29;20065;-95
2021/04/08 00:33:32;;;;;;;1999.90;999.90;;;3.30;99.90;;;;;;4876214;29;20378;-95
2021/04/08 00:36:04;;;;;;;1999.90;999.90;;;3.30;99.90;;;;;;4866519;29;20077;-95
2021/04/08 00:38:33;;;;;;;1999.90;999.90;;;3.30;99.90;;;;;;4864215;29;20056;-94
2021/04/08 00:41:02;;;;;;;1999.90;999.90;;;3.30;99.90;;;;;;4862858;29;20073;-94
2021/04/08 00:43:35;;;;;;;1999.90;999.90;;;3.30;99.90;;;;;;4862564;29;20053;-95
2021/04/08 00:46:06;;;;;;;1999.90;999.90;;;3.30;99.90;;;;;;4863432;29;20065;-94
2021/04/08 00:48:33;;;;;;;1999.90;999.90;;;3.40;99.90;;;;;;4863166;29;20063;-94
2021/04/08 00:51:01;;;;;;;1999.90;999.90;;;3.40;99.90;;;;;;4863397;29;20060;-95
2021/04/08 00:53:36;;;;;;;1999.90;999.90;;;3.40;99.90;;;;;;4862630;29;20057;-95
2021/04/08 00:56:09;;;;;;;1999.90;999.90;;;3.40;99.90;;;;;;4863123;29;20536;-94
2021/04/08 00:58:45;;;;;;;1999.90;999.90;;;3.40;99.90;;;;;;4862540;29;20072;-95
2021/04/08 01:01:15;;;;;;;1999.90;999.90;;;3.40;99.90;;;;;;4862315;29;20090;-95
2021/04/08 01:03:49;;;;;;;1999.90;999.90;;;3.40;99.90;;;;;;4862546;29;20057;-95
2021/04/08 01:06:21;;;;;;;1999.90;999.90;;;3.40;99.90;;;;;;4862926;29;20058;-95
2021/04/08 01:08:55;;;;;;;1999.90;999.90;;;3.40;99.90;;;;;;4862668;29;20081;-94
2021/04/08 01:11:28;;;;;;;1999.90;999.90;;;3.50;99.90;;;;;;4861789;29;20496;-96
2021/04/08 01:14:01;;;;;;;1999.90;999.90;;;3.50;99.90;;;;;;4862493;29;20068;-94
2021/04/08 01:16:44;;;;;;;1999.90;999.90;;;3.40;99.90;;;;;;4864521;29;20058;-94
2021/04/08 01:19:48;;;;;;;1999.90;999.90;;;3.50;99.90;;;;;;4863282;29;20058;-95
2021/04/08 01:22:56;;;;;;;1999.90;999.90;;;3.50;99.90;;;;;;4860484;29;20140;-95
2021/04/08 01:26:02;;;;;;;1999.90;999.90;;;3.50;99.90;;;;;;4862522;29;20092;-95
2021/04/08 01:28:42;;;;;;;1999.90;999.90;;;3.50;99.90;;;;;;4855260;29;20492;-96
2021/04/08 01:31:17;;;;;;;1999.90;999.90;;;3.50;99.90;;;;;;4863406;29;20165;-94
2021/04/08 01:33:50;;;;;;;;;;;3.60;99.90;;;;;;4863754;29;20473;-95
2021/04/08 01:36:24;;;;;;;1999.90;999.90;;;3.50;99.90;;;;;;4862861;29;20007;-94
2021/04/08 01:39:15;;;;;;;1999.90;999.90;;;3.50;99.90;;;;;;4862832;29;20058;-96
2021/04/08 01:42:16;;;;;;;1999.90;999.90;;;3.50;99.90;;;;;;4862138;29;20141;-95
2021/04/08 01:45:22;;;;;;;1999.90;999.90;;;3.40;99.90;;;;;;4863835;29;20057;-94
2021/04/08 01:48:16;;;;;;;1999.90;999.90;;;3.40;99.90;;;;;;4833068;29;20068;-95
2021/04/08 01:51:15;;;;;;;1999.90;999.90;;;3.50;99.90;;;;;;4864241;29;20057;-95
2021/04/08 01:57:23;;;;;;;1999.90;999.90;;;3.50;99.90;;;;;;4844570;29;20066;-95
2021/04/08 02:03:52;;;;;;;1999.90;999.90;;;3.60;99.90;;;;;;4863666;29;20049;-95
2021/04/08 02:25:26;;;;;;;1999.90;999.90;;;3.70;99.90;;;;;;4784338;30;20058;-95
2021/04/08 04:06:15;;;;;;;1999.90;999.90;;;3.80;99.90;;;;;;4753878;30;20090;-95
2021/04/08 05:00:29;;;;;;;1999.90;999.90;;;3.40;99.90;;;;;;4844927;29;20066;-94
2021/04/08 05:03:09;;;;;;;1999.90;999.90;;;3.40;99.90;;;;;;4848977;29;20464;-94
2021/04/08 05:05:46;;;;;;;1999.90;999.90;;;3.40;99.90;;;;;;4854092;29;20485;-95
2021/04/08 05:08:18;;;;;;;1999.90;999.90;;;3.40;99.90;;;;;;4857301;29;20489;-95
2021/04/08 05:10:48;;;;;;;1999.90;999.90;;;3.50;99.90;;;;;;4855521;29;20062;-94
2021/04/08 05:13:26;;;;;;;1999.90;999.90;;;3.50;99.90;;;;;;4844335;29;20050;-96
2021/04/08 05:15:58;;;;;;;1999.90;999.90;;;3.50;99.90;;;;;;4844803;29;20608;-95
2021/04/08 05:18:25;;;;;;;1999.90;999.90;;;3.50;99.90;;;;;;4844834;29;20062;-96
2021/04/08 05:21:03;;;;;;;1999.90;999.90;;;3.40;99.90;;;;;;4846342;29;20141;-96
2021/04/08 05:23:44;;;;;;;1999.90;999.90;;;3.40;99.90;;;;;;4845762;29;20061;-95
2021/04/08 05:26:15;;;;;;;1999.90;999.90;;;3.40;99.90;;;;;;4849669;29;20058;-95
2021/04/08 05:28:49;;;;;;;1999.90;999.90;;;3.40;99.90;;;;;;4849362;29;20072;-95
2021/04/08 05:31:34;;;;;;;;;;;;;;;;;;;;;
2021/04/08 05:34:09;;;;;;;1999.90;999.90;;;3.40;99.90;;;;;;4849541;29;20081;-95
2021/04/08 05:36:45;;;;;;;1999.90;999.90;;;3.40;99.90;;;;;;4848679;29;20062;-95
2021/04/08 05:39:48;;;;;;;1999.90;999.90;;;3.40;99.90;;;;;;4849812;29;20122;-95
2021/04/08 05:42:51;;;;;;;;;;;;;;;;;;;;;
2021/04/08 05:45:46;;;;;;;1999.90;999.90;;;3.50;99.90;;;;;;4792232;29;20059;-96
2021/04/08 05:48:38;;;;;;;1999.90;999.90;;;3.50;99.90;;;;;;4794649;29;20066;-95
2021/04/08 05:54:48;;;;;;;1999.90;999.90;;;3.50;99.90;;;;;;4789372;29;20059;-95
2021/04/08 06:02:07;;;;;;;1999.90;999.90;;;3.50;99.90;;;;;;4784846;29;20801;-96
2021/04/08 11:01:30;;;;;;;1999.90;999.90;;;7.60;95.30;;;;;;3632363;23;20400;-92
2021/04/08 11:04:14;;;;;;;1999.90;999.90;;;7.70;95.40;;;;;;5415381;23;21066;-94
2021/04/08 11:09:50;;;;;;;1999.90;999.90;;;7.80;94.80;;;;;;5094835;23;20041;-96
2021/04/08 11:12:55;;;;;;;1999.90;999.90;;;7.80;95.50;;;;;;4898397;29;20072;-96
2021/04/08 11:19:27;;;;;;;1999.90;999.90;;;7.80;95.00;;;;;;4852115;29;20003;-96
2021/04/08 11:34:29;;;;;;;;;;;;;;;;;;;;;
2021/04/08 12:25:18;;;;;;;1999.90;999.90;;;9.80;89.20;;;;;;4790597;30;20054;-94
2021/04/08 12:27:47;;;;;;;1999.90;999.90;;;9.90;87.80;;;;;;4798369;29;20548;-95
2021/04/08 12:31:16;;;;;;;;;;;;;;;;;;;;;
2021/04/08 12:34:16;;;;;;;1999.90;999.90;;;10.10;82.50;;;;;;4790130;29;20050;-94
2021/04/08 12:37:25;;;;;;;1999.90;999.90;;;10.10;84.20;;;;;;4824927;29;20153;-94
2021/04/08 12:43:45;;;;;;;1999.90;999.90;;;10.00;83.80;;;;;;4824529;29;20057;-95
2021/04/08 12:46:40;;;;;;;1999.90;999.90;;;10.10;83.50;;;;;;4799775;29;20058;-96
2021/04/08 12:49:43;;;;;;;1999.90;999.90;;;10.10;83.30;;;;;;4815921;29;20069;-96
2021/04/08 12:52:28;;;;;;;1999.90;999.90;;;10.30;83.60;;;;;;4838516;29;20061;-96
2021/04/08 12:58:06;;;;;;;1999.90;999.90;;;10.20;81.60;;;;;;4844460;29;20057;-96
2021/04/08 13:01:36;;;;;;;;;;;;;;;;;;;;;
2021/04/08 13:04:36;;;;;;;1999.90;999.90;;;10.20;81.90;;;;;;4844858;29;20050;-96
2021/04/08 13:10:28;;;;;;;1999.90;999.90;;;10.10;81.50;;;;;;4842785;29;20068;-96
2021/04/08 13:16:20;;;;;;;1999.90;999.90;;;10.10;80.30;;;;;;4844740;29;20092;-96
2021/04/08 13:19:15;;;;;;;1999.90;999.90;;;10.10;81.80;;;;;;4844750;29;20470;-96
2021/04/08 13:25:34;;;;;;;1999.90;999.90;;;10.20;84.50;;;;;;4846993;29;20498;-95
2021/04/08 13:31:36;;;;;;;1999.90;999.90;;;10.20;83.70;;;;;;4842146;29;20069;-96
2021/04/08 13:35:03;;;;;;;1999.90;999.90;;;10.20;82.40;;;;;;4843993;29;20459;-96
2021/04/08 13:38:00;;;;;;;1999.90;999.90;;;10.20;84.20;;;;;;4845220;29;20058;-96
2021/04/08 13:44:02;;;;;;;1999.90;999.90;;;10.20;84.30;;;;;;4845527;29;20073;-95
2021/04/08 13:47:02;;;;;;;1999.90;999.90;;;10.30;84.80;;;;;;4849899;29;20077;-96
2021/04/08 13:49:54;;;;;;;1999.90;999.90;;;10.30;85.30;;;;;;4853763;29;20078;-94
2021/04/08 13:58:54;;;;;;;1999.90;999.90;;;10.50;80.10;;;;;;4848014;29;20057;-96
2021/04/08 14:01:50;;;;;;;1999.90;999.90;;;10.60;82.40;;;;;;4848575;29;20393;-95
2021/04/08 14:04:36;;;;;;;1999.90;999.90;;;10.80;79.60;;;;;;4847722;29;20060;-95
2021/04/08 14:07:29;;;;;;;;;;;;;;;;;;;;;
2021/04/08 14:10:29;;;;;;;1999.90;999.90;;;10.90;79.50;;;;;;4848375;29;20085;-96
2021/04/08 14:13:15;;;;;;;1999.90;999.90;;;10.90;80.40;;;;;;4847234;29;20054;-96
2021/04/08 14:16:25;;;;;;;1999.90;999.90;;;10.90;77.40;;;;;;4848824;29;20065;-96
2021/04/08 14:22:30;;;;;;;1999.90;999.90;;;10.80;81.30;;;;;;4856760;29;20052;-96
2021/04/08 14:25:52;;;;;;;;;;;;;;;;;;;;;
2021/04/08 14:28:50;;;;;;;1999.90;999.90;;;10.80;79.40;;;;;;4846632;29;20474;-96
2021/04/08 14:31:32;;;;;;;1999.90;999.90;;;10.80;81.30;;;;;;4846986;29;20631;-95
2021/04/08 14:45:12;;;;;;;;;;;;;;;;;;;;;
2021/04/08 14:50:38;;;;;;;1999.90;999.90;;;10.60;80.40;;;;;;4846353;29;20061;-95
2021/04/08 14:53:19;;;;;;;1999.90;999.90;;;10.60;79.50;;;;;;4848063;29;20058;-96
2021/04/08 14:58:52;;;;;;;1999.90;999.90;;;10.30;79.40;;;;;;4854287;29;20085;-95
2021/04/08 15:01:37;;;;;;;1999.90;999.90;;;10.30;78.10;;;;;;4851937;29;20080;-96
2021/04/08 15:04:30;;;;;;;1999.90;999.90;;;10.10;78.70;;;;;;4853174;29;20081;-95
2021/04/08 15:07:43;;;;;;;1999.90;999.90;;;10.00;80.20;;;;;;4791017;30;20111;-94
2021/04/08 15:10:31;;;;;;;1999.90;999.90;;;10.00;79.50;;;;;;4789147;30;20067;-95
2021/04/08 15:13:05;;;;;;;1999.90;999.90;;;10.00;80.10;;;;;;4790546;30;20055;-95
2021/04/08 15:15:56;;;;;;;1999.90;999.90;;;9.90;81.30;;;;;;4795178;30;20522;-95
2021/04/08 15:18:40;;;;;;;1999.90;999.90;;;10.00;80.90;;;;;;4795328;30;20055;-95
2021/04/08 15:21:58;;;;;;;;;;;;;;;;;;;;;
2021/04/08 15:25:20;;;;;;;1999.90;999.90;;;10.00;81.40;;;;;;4800754;30;20112;-96
2021/04/08 15:28:33;;;;;;;1999.90;999.90;;;9.90;81.20;;;;;;4800471;30;20075;-96
2021/04/08 15:31:35;;;;;;;1999.90;999.90;;;9.90;82.50;;;;;;4800078;30;20074;-96
2021/04/08 15:37:31;;;;;;;1999.90;999.90;;;10.00;82.90;;;;;;4803278;29;20074;-96
2021/04/08 15:40:13;;;;;;;1999.90;999.90;;;10.00;81.70;;;;;;4857564;29;20089;-96
2021/04/08 15:43:29;;;;;;;1999.90;999.90;;;9.90;80.80;;;;;;4802058;30;20115;-96
2021/04/08 15:46:34;;;;;;;1999.90;999.90;;;10.00;81.90;;;;;;4821301;29;20098;-96
2021/04/08 15:49:36;;;;;;;;;;;;;;;;;;;;;
2021/04/08 15:52:59;;;;;;;1999.90;999.90;;;9.90;81.60;;;;;;4817437;29;20066;-94
2021/04/08 16:04:12;;;;;;;;;;;;;;;;;;;;;
2021/04/08 16:10:42;;;;;;;1999.90;999.90;;;9.60;83.00;;;;;;4791243;30;20059;-96
2021/04/08 16:13:32;;;;;;;1999.90;999.90;;;9.60;83.40;;;;;;4817062;29;20207;-96
2021/04/08 16:16:50;;;;;;;1999.90;999.90;;;9.70;83.20;;;;;;4812557;29;20070;-94
2021/04/08 16:19:26;;;;;;;1999.90;999.90;;;9.70;84.00;;;;;;4811896;29;20058;-96
2021/04/08 16:21:57;;;;;;;1999.90;999.90;;;9.70;83.70;;;;;;4844843;29;20073;-93
2021/04/08 16:24:51;;;;;;;1999.90;999.90;;;9.80;83.60;;;;;;4848566;29;20073;-94
2021/04/08 16:27:46;;;;;;;1999.90;999.90;;;9.80;83.70;;;;;;4869433;29;20061;-95
2021/04/08 16:30:45;;;;;;;1999.90;999.90;;;9.80;83.90;;;;;;4869069;29;20062;-96
2021/04/08 16:33:35;;;;;;;1999.90;999.90;;;9.80;85.10;;;;;;4862012;29;20060;-95
2021/04/08 16:39:38;;;;;;;1999.90;999.90;;;9.70;84.60;;;;;;4864659;29;20076;-96
2021/04/08 16:42:24;;;;;;;1999.90;999.90;;;9.60;83.80;;;;;;4864891;29;20153;-94
2021/04/08 17:05:29;;;;;;;1999.90;999.90;;;9.90;84.40;;;;;;5561405;24;20140;-93
2021/04/08 17:11:14;;;;;;;1999.90;999.90;;;10.00;83.60;;;;;;4867588;29;20069;-94
2021/04/08 17:13:43;;;;;;;1999.90;999.90;;;10.10;82.80;;;;;;4879583;29;20045;-92
2021/04/08 17:16:10;;;;;;;1999.90;999.90;;;10.30;81.70;;;;;;4862892;29;20061;-93
2021/04/08 17:18:48;;;;;;;1999.90;999.90;;;10.50;82.10;;;;;;5046912;23;20089;-95
2021/04/08 17:46:28;;;;;;;1999.90;999.90;;;9.50;87.20;;;;;;4868851;29;20042;-93
2021/04/08 17:48:55;;;;;;;1999.90;999.90;;;9.40;87.50;;;;;;4868829;29;20062;-93
2021/04/08 17:51:22;;;;;;;1999.90;999.90;;;9.40;88.20;;;;;;4862592;29;20089;-92
2021/04/08 17:53:49;;;;;;;1999.90;999.90;;;9.30;88.30;;;;;;4863511;29;20057;-93
2021/04/08 17:56:26;;;;;;;1999.90;999.90;;;9.30;88.80;;;;;;4863101;29;20062;-93
2021/04/08 17:58:56;;;;;;;1999.90;999.90;;;9.20;88.50;;;;;;4867601;29;20058;-93
2021/04/08 18:01:26;;;;;;;1999.90;999.90;;;9.20;88.30;;;;;;4865834;29;20125;-93
2021/04/08 18:03:55;;;;;;;1999.90;999.90;;;9.10;89.10;;;;;;4863545;29;20390;-93
2021/04/08 18:06:22;;;;;;;1999.90;999.90;;;9.00;89.60;;;;;;4863731;29;20093;-93
2021/04/08 18:08:49;;;;;;;1999.90;999.90;;;8.90;90.00;;;;;;4862992;29;20084;-93
2021/04/08 18:11:16;;;;;;;1999.90;999.90;;;8.80;90.50;;;;;;4862811;29;20065;-92
2021/04/08 18:13:43;;;;;;;1999.90;999.90;;;8.70;90.80;;;;;;4862698;29;20065;-95
2021/04/08 18:16:10;;;;;;;1999.90;999.90;;;8.70;90.70;;;;;;4862801;29;20057;-93
2021/04/08 18:18:40;;;;;;;1999.90;999.90;;;8.60;91.10;;;;;;4863843;29;20064;-95
2021/04/08 18:21:08;;;;;;;1999.90;999.90;;;8.60;91.60;;;;;;4867455;29;20492;-93
2021/04/08 18:23:36;;;;;;;1999.90;999.90;;;8.50;91.60;;;;;;4869022;29;20064;-95
2021/04/08 18:26:05;;;;;;;1999.90;999.90;;;8.50;92.10;;;;;;4864916;29;20065;-94
2021/04/08 18:28:35;;;;;;;1999.90;999.90;;;8.50;92.30;;;;;;4865230;29;20061;-94
2021/04/08 18:31:02;;;;;;;1999.90;999.90;;;8.50;92.60;;;;;;4864867;29;20100;-94
2021/04/08 18:33:30;;;;;;;1999.90;999.90;;;8.50;92.70;;;;;;4868943;29;20057;-94
2021/04/08 18:35:59;;;;;;;1999.90;999.90;;;8.40;92.60;;;;;;4881884;29;20500;-94
2021/04/08 18:38:27;;;;;;;1999.90;999.90;;;8.40;92.80;;;;;;4865471;29;20085;-94
2021/04/08 18:40:55;;;;;;;1999.90;999.90;;;8.30;93.00;;;;;;4865643;29;20061;-94
2021/04/08 18:43:24;;;;;;;1999.90;999.90;;;8.30;92.80;;;;;;4870805;29;20434;-94
2021/04/08 18:45:52;;;;;;;1999.90;999.90;;;8.30;93.30;;;;;;4883957;29;20097;-94
2021/04/08 18:48:24;;;;;;;1999.90;999.90;;;8.20;93.30;;;;;;4866295;29;20057;-93
2021/04/08 18:50:54;;;;;;;1999.90;999.90;;;8.20;93.70;;;;;;4865032;29;20404;-94
2021/04/08 18:53:22;;;;;;;1999.90;999.90;;;8.10;94.10;;;;;;4864683;29;20144;-94
2021/04/08 18:55:51;;;;;;;1999.90;999.90;;;8.10;94.50;;;;;;4872169;29;20067;-94
2021/04/08 18:58:18;;;;;;;1999.90;999.90;;;8.10;94.90;;;;;;4870695;29;20072;-94
2021/04/08 19:00:47;;;;;;;1999.90;999.90;;;8.00;94.60;;;;;;4878524;29;20061;-94
2021/04/08 19:03:15;;;;;;;1999.90;999.90;;;8.00;94.90;;;;;;4868671;29;20117;-93
2021/04/08 19:05:44;;;;;;;1999.90;999.90;;;8.00;94.80;;;;;;4881049;29;20057;-94
2021/04/08 19:08:11;;;;;;;1999.90;999.90;;;7.90;94.80;;;;;;4869207;29;20089;-93
2021/04/08 19:10:40;;;;;;;1999.90;999.90;;;7.90;95.30;;;;;;4868496;29;20061;-94
2021/04/08 19:13:11;;;;;;;1999.90;999.90;;;7.90;95.20;;;;;;4876553;29;20068;-93
2021/04/08 19:15:39;;;;;;;1999.90;999.90;;;7.80;95.40;;;;;;4883914;29;20383;-94
2021/04/08 19:18:07;;;;;;;1999.90;999.90;;;7.80;95.60;;;;;;4868884;29;20073;-94
2021/04/08 19:20:35;;;;;;;1999.90;999.90;;;7.80;95.50;;;;;;4865962;29;20054;-93
2021/04/08 19:23:03;;;;;;;1999.90;999.90;;;7.80;95.80;;;;;;4865264;29;20125;-93
2021/04/08 19:28:16;;;;;;;1999.90;999.90;;;7.70;95.70;;;;;;4862965;29;20053;-93
2021/04/08 19:30:47;;;;;;;1999.90;999.90;;;7.60;95.70;;;;;;4864403;29;20072;-92
2021/04/08 19:33:18;;;;;;;1999.90;999.90;;;7.60;95.90;;;;;;4849424;29;20119;-93
2021/04/08 19:35:48;;;;;;;1999.90;999.90;;;7.60;96.20;;;;;;4854532;29;20065;-93
2021/04/08 19:38:16;;;;;;;1999.90;999.90;;;7.60;95.80;;;;;;4865202;29;20057;-93
2021/04/08 19:40:45;;;;;;;1999.90;999.90;;;7.50;95.90;;;;;;4865955;29;20504;-91
2021/04/08 19:43:18;;;;;;;1999.90;999.90;;;7.50;96.00;;;;;;4846690;29;20062;-94
2021/04/08 19:45:46;;;;;;;1999.90;999.90;;;7.50;96.10;;;;;;4846522;29;20057;-94
2021/04/08 19:48:14;;;;;;;1999.90;999.90;;;7.50;96.40;;;;;;4880190;29;20056;-94
2021/04/08 19:50:41;;;;;;;1999.90;999.90;;;7.50;96.60;;;;;;4884342;29;20063;-94
2021/04/08 19:53:09;;;;;;;1999.90;999.90;;;7.50;96.80;;;;;;4868570;29;20126;-93
2021/04/08 19:55:38;;;;;;;1999.90;999.90;;;7.50;97.00;;;;;;4864106;29;20077;-92
2021/04/08 19:58:05;;;;;;;1999.90;999.90;;;7.50;97.10;;;;;;4863542;29;20064;-93
2021/04/08 20:00:34;;;;;;;1999.90;999.90;;;7.50;97.00;;;;;;4864419;29;20054;-94
2021/04/08 20:03:01;;;;;;;1999.90;999.90;;;7.40;97.10;;;;;;4867012;29;20488;-93
2021/04/08 20:05:32;;;;;;;1999.90;999.90;;;7.40;97.30;;;;;;4865354;29;20057;-92
2021/04/08 20:07:59;;;;;;;1999.90;999.90;;;7.40;97.40;;;;;;4870807;29;20057;-93
2021/04/08 20:10:27;;;;;;;1999.90;999.90;;;7.40;97.40;;;;;;4886505;29;20071;-94
2021/04/08 20:12:54;;;;;;;1999.90;999.90;;;7.40;97.60;;;;;;4880938;29;20053;-93
2021/04/08 20:15:23;;;;;;;1999.90;999.90;;;7.40;97.60;;;;;;4866484;29;20053;-94
2021/04/08 20:17:51;;;;;;;1999.90;999.90;;;7.40;97.70;;;;;;4865191;29;20497;-94
2021/04/08 20:20:19;;;;;;;1999.90;999.90;;;7.40;98.00;;;;;;4873360;29;20091;-94
2021/04/08 20:22:49;;;;;;;1999.90;999.90;;;7.40;97.90;;;;;;4885700;29;20057;-94
2021/04/08 20:25:17;;;;;;;1999.90;999.90;;;7.40;97.80;;;;;;4885527;29;20124;-95
2021/04/08 20:27:46;;;;;;;1999.90;999.90;;;7.30;97.80;;;;;;4886983;29;20500;-94
2021/04/08 20:30:14;;;;;;;1999.90;999.90;;;7.40;98.00;;;;;;4883560;29;20061;-94
2021/04/08 20:32:42;;;;;;;1999.90;999.90;;;7.30;98.10;;;;;;4884874;29;20441;-93
2021/04/08 20:35:11;;;;;;;1999.90;999.90;;;7.30;98.50;;;;;;4885182;29;20079;-93
2021/04/08 20:37:38;;;;;;;1999.90;999.90;;;7.30;98.70;;;;;;4887754;29;20057;-93
2021/04/08 20:40:09;;;;;;;1999.90;999.90;;;7.30;98.60;;;;;;4871031;29;20086;-93
2021/04/08 20:42:44;;;;;;;1999.90;999.90;;;7.30;98.90;;;;;;4863577;29;20096;-94
2021/04/08 20:45:15;;;;;;;1999.90;999.90;;;7.30;99.20;;;;;;4863948;29;20049;-93
2021/04/08 20:47:42;;;;;;;1999.90;999.90;;;7.30;99.60;;;;;;4863576;29;20113;-92
2021/04/08 20:50:11;;;;;;;1999.90;999.90;;;7.30;99.60;;;;;;4882253;29;20085;-93
2021/04/08 20:52:48;;;;;;;1999.90;999.90;;;7.20;99.80;;;;;;4881989;29;20064;-93
2021/04/08 20:55:16;;;;;;;1999.90;999.90;;;7.20;99.90;;;;;;4875925;29;20136;-93
2021/04/08 20:57:44;;;;;;;1999.90;999.90;;;7.20;99.90;;;;;;4863286;29;20077;-93
2021/04/08 21:00:12;;;;;;;1999.90;999.90;;;7.20;99.90;;;;;;4873645;29;20511;-93
2021/04/08 21:02:40;;;;;;;1999.90;999.90;;;7.10;99.90;;;;;;4881522;29;20052;-93
2021/04/08 21:05:08;;;;;;;1999.90;999.90;;;7.10;99.90;;;;;;4882360;29;20169;-93
2021/04/08 21:07:36;;;;;;;1999.90;999.90;;;7.10;99.90;;;;;;4869334;29;20085;-92
2021/04/08 21:10:05;;;;;;;1999.90;999.90;;;7.10;99.90;;;;;;4870997;29;20084;-94
2021/04/08 21:12:32;;;;;;;1999.90;999.90;;;7.20;99.90;;;;;;4881605;29;20064;-93
2021/04/08 21:14:59;;;;;;;1999.90;999.90;;;7.10;99.90;;;;;;4877927;29;20077;-92
2021/04/08 21:17:26;;;;;;;1999.90;999.90;;;7.10;99.90;;;;;;4857119;29;20088;-91
2021/04/08 21:19:53;;;;;;;1999.90;999.90;;;7.10;99.90;;;;;;4861105;29;20071;-92
2021/04/08 21:22:21;;;;;;;1999.90;999.90;;;7.00;99.90;;;;;;4862162;29;20054;-92
2021/04/08 21:24:49;;;;;;;1999.90;999.90;;;7.00;99.90;;;;;;4866597;29;20081;-94
2021/04/08 21:27:17;;;;;;;1999.90;999.90;;;7.00;99.90;;;;;;4867253;29;20493;-92
2021/04/08 21:29:44;;;;;;;1999.90;999.90;;;6.90;99.90;;;;;;4859835;29;20065;-92
2021/04/08 21:32:11;;;;;;;1999.90;999.90;;;6.90;99.90;;;;;;4864515;29;20084;-93
2021/04/08 21:34:38;;;;;;;1999.90;999.90;;;7.00;99.90;;;;;;4862671;29;20089;-92
2021/04/08 21:37:06;;;;;;;1999.90;999.90;;;6.90;99.90;;;;;;4871767;29;20053;-92
2021/04/08 21:39:35;;;;;;;1999.90;999.90;;;6.90;99.90;;;;;;4871455;29;20056;-91
2021/04/08 21:42:04;;;;;;;1999.90;999.90;;;6.90;99.90;;;;;;4865326;29;20486;-92
2021/04/08 21:44:31;;;;;;;1999.90;999.90;;;6.80;99.90;;;;;;4865439;29;20530;-92
2021/04/08 21:46:59;;;;;;;1999.90;999.90;;;6.80;99.90;;;;;;4861137;29;20061;-92
2021/04/08 21:49:27;;;;;;;1999.90;999.90;;;6.80;99.90;;;;;;4856341;29;20065;-91
2021/04/08 21:51:54;;;;;;;1999.90;999.90;;;6.80;99.90;;;;;;4852155;29;20064;-92
2021/04/08 21:54:21;;;;;;;1999.90;999.90;;;6.80;99.90;;;;;;4857313;29;20053;-92
2021/04/08 21:56:48;;;;;;;1999.90;999.90;;;6.80;99.90;;;;;;4862553;29;20146;-92
2021/04/08 21:59:16;;;;;;;1999.90;999.90;;;6.80;99.90;;;;;;4861643;29;20053;-92
2021/04/08 22:01:43;;;;;;;1999.90;999.90;;;6.80;99.90;;;;;;4858614;29;20076;-91
2021/04/08 22:04:11;;;;;;;1999.90;999.90;;;6.80;99.90;;;;;;4853950;29;20177;-92
2021/04/08 22:06:38;;;;;;;1999.90;999.90;;;6.70;99.90;;;;;;4862584;29;20061;-92
2021/04/08 22:09:06;;;;;;;1999.90;999.90;;;6.70;99.90;;;;;;4855946;29;20124;-92
2021/04/08 22:11:33;;;;;;;1999.90;999.90;;;6.70;99.90;;;;;;4860666;29;20079;-92
2021/04/08 22:14:00;;;;;;;1999.90;999.90;;;6.70;99.90;;;;;;4865747;29;20053;-92
2021/04/08 22:16:28;;;;;;;1999.90;999.90;;;6.60;99.90;;;;;;4864328;29;20084;-91
2021/04/08 22:18:55;;;;;;;1999.90;999.90;;;6.60;99.90;;;;;;4865341;29;20117;-91
2021/04/08 22:21:25;;;;;;;1999.90;999.90;;;6.60;99.90;;;;;;4866664;29;20053;-92
2021/04/08 22:23:53;;;;;;;1999.90;999.90;;;6.60;99.90;;;;;;4865322;29;20125;-93
2021/04/08 22:26:21;;;;;;;1999.90;999.90;;;6.60;99.90;;;;;;4870866;29;20545;-93
2021/04/08 22:28:48;;;;;;;1999.90;999.90;;;6.50;99.90;;;;;;4885642;29;20061;-94
2021/04/08 22:31:16;;;;;;;1999.90;999.90;;;6.50;99.90;;;;;;4887715;29;20068;-93
2021/04/08 22:33:45;;;;;;;1999.90;999.90;;;6.50;99.90;;;;;;4887586;29;20580;-93
2021/04/08 22:36:15;;;;;;;1999.90;999.90;;;6.50;99.90;;;;;;4891819;29;20068;-93
2021/04/08 22:38:43;;;;;;;1999.90;999.90;;;6.50;99.90;;;;;;4896720;29;20060;-93
2021/04/08 22:41:11;;;;;;;1999.90;999.90;;;6.40;99.90;;;;;;4859219;29;20062;-93
2021/04/08 22:43:39;;;;;;;1999.90;999.90;;;6.40;99.90;;;;;;4848331;29;20058;-92
2021/04/08 22:46:06;;;;;;;1999.90;999.90;;;6.40;99.90;;;;;;4847170;29;20065;-93
2021/04/08 22:48:43;;;;;;;1999.90;999.90;;;6.40;99.90;;;;;;4847290;29;20058;-94
2021/04/08 22:51:12;;;;;;;1999.90;999.90;;;6.40;99.90;;;;;;4847397;29;20054;-95
2021/04/08 22:53:39;;;;;;;1999.90;999.90;;;6.40;99.90;;;;;;4846694;29;20057;-95
2021/04/08 22:56:08;;;;;;;1999.90;999.90;;;6.40;99.90;;;;;;4846416;29;20141;-94
2021/04/08 22:58:39;;;;;;;1999.90;999.90;;;6.40;99.90;;;;;;4847399;29;20066;-94
2021/04/08 23:01:07;;;;;;;1999.90;999.90;;;6.40;99.90;;;;;;4847627;29;20527;-94
2021/04/08 23:03:37;;;;;;;1999.90;999.90;;;6.40;99.90;;;;;;4846607;29;20062;-95
2021/04/08 23:06:09;;;;;;;1999.90;999.90;;;6.30;99.90;;;;;;4847699;29;20088;-93
2021/04/08 23:08:37;;;;;;;1999.90;999.90;;;6.30;99.90;;;;;;4846235;29;20087;-93
2021/04/08 23:11:05;;;;;;;1999.90;999.90;;;6.30;99.90;;;;;;4846722;29;20066;-94
2021/04/08 23:13:33;;;;;;;1999.90;999.90;;;6.30;99.90;;;;;;4846362;29;20502;-94
2021/04/08 23:16:01;;;;;;;1999.90;999.90;;;6.30;99.90;;;;;;4847147;29;20054;-94
2021/04/08 23:18:28;;;;;;;1999.90;999.90;;;6.30;99.90;;;;;;4846374;29;20061;-94
2021/04/08 23:20:56;;;;;;;1999.90;999.90;;;6.30;99.90;;;;;;4846923;29;20112;-94
2021/04/08 23:23:24;;;;;;;1999.90;999.90;;;6.30;99.90;;;;;;4846795;29;20549;-93
2021/04/08 23:25:53;;;;;;;1999.90;999.90;;;6.30;99.90;;;;;;4845884;29;20082;-94
2021/04/08 23:28:20;;;;;;;1999.90;999.90;;;6.20;99.90;;;;;;4845722;29;20058;-94
2021/04/08 23:30:47;;;;;;;1999.90;999.90;;;6.30;99.90;;;;;;4846107;29;20069;-93
2021/04/08 23:33:14;;;;;;;1999.90;999.90;;;6.30;99.90;;;;;;4846694;29;20058;-94
2021/04/08 23:35:41;;;;;;;1999.90;999.90;;;6.20;99.90;;;;;;4846171;29;20057;-94
2021/04/08 23:38:08;;;;;;;1999.90;999.90;;;6.20;99.90;;;;;;4846017;29;20563;-94
2021/04/08 23:40:36;;;;;;;1999.90;999.90;;;6.30;99.90;;;;;;4845960;29;20149;-94
2021/04/08 23:43:04;;;;;;;1999.90;999.90;;;6.30;99.90;;;;;;4845703;29;20099;-93
2021/04/08 23:45:31;;;;;;;1999.90;999.90;;;6.20;99.90;;;;;;4861560;29;20144;-93
2021/04/08 23:47:58;;;;;;;1999.90;999.90;;;6.20;99.90;;;;;;4863836;29;20057;-92
2021/04/08 23:50:26;;;;;;;1999.90;999.90;;;6.30;99.90;;;;;;4861683;29;20104;-93
2021/04/08 23:52:53;;;;;;;1999.90;999.90;;;6.30;99.90;;;;;;4868438;29;20053;-93
2021/04/08 23:55:24;;;;;;;1999.90;999.90;;;6.20;99.90;;;;;;4867516;29;20402;-93
2021/04/08 23:57:51;;;;;;;1999.90;999.90;;;6.30;99.90;;;;;;4883162;29;20053;-94
